sensor_id;sensor_type;location;lat;lon;timestamp;pressure;altitude;pressure_sealevel;temperature;humidity
48244;BME280;34053;51.088;6.572;2023-02-28T00:00:54;102392.53;;;2.35;57.25
48244;BME280;34053;51.088;6.572;2023-02-28T00:03:24;102392.00;;;2.45;56.66
48244;BME280;34053;51.088;6.572;2023-02-28T00:05:55;102392.09;;;2.48;56.50
48244;BME280;34053;51.088;6.572;2023-02-28T00:08:25;102388.88;;;2.30;56.96
48244;BME280;34053;51.088;6.572;2023-02-28T00:11:03;102390.41;;;2.23;56.95
48244;BME280;34053;51.088;6.572;2023-02-28T00:13:36;102397.81;;;2.38;57.02
48244;BME280;34053;51.088;6.572;2023-02-28T00:16:12;102388.69;;;2.24;56.87
48244;BME280;34053;51.088;6.572;2023-02-28T00:18:43;102387.44;;;2.38;56.71
48244;BME280;34053;51.088;6.572;2023-02-28T00:21:14;102389.38;;;2.44;56.81
48244;BME280;34053;51.088;6.572;2023-02-28T00:23:46;102384.22;;;2.45;56.62
48244;BME280;34053;51.088;6.572;2023-02-28T00:26:16;102381.53;;;2.16;57.36
48244;BME280;34053;51.088;6.572;2023-02-28T00:28:47;102384.50;;;2.27;57.23
48244;BME280;34053;51.088;6.572;2023-02-28T00:31:18;102388.38;;;2.14;57.53
48244;BME280;34053;51.088;6.572;2023-02-28T00:33:49;102388.56;;;2.20;57.32
48244;BME280;34053;51.088;6.572;2023-02-28T00:36:21;102388.03;;;2.05;57.75
48244;BME280;34053;51.088;6.572;2023-02-28T00:38:52;102378.13;;;2.17;57.37
48244;BME280;34053;51.088;6.572;2023-02-28T00:41:22;102388.25;;;2.11;57.64
48244;BME280;34053;51.088;6.572;2023-02-28T00:43:52;102393.03;;;2.25;57.13
48244;BME280;34053;51.088;6.572;2023-02-28T00:46:26;102394.00;;;2.27;56.70
48244;BME280;34053;51.088;6.572;2023-02-28T00:48:56;102389.66;;;2.27;57.28
48244;BME280;34053;51.088;6.572;2023-02-28T00:51:27;102387.75;;;2.22;57.37
48244;BME280;34053;51.088;6.572;2023-02-28T00:53:57;102387.66;;;2.18;57.28
48244;BME280;34053;51.088;6.572;2023-02-28T00:56:27;102384.53;;;2.29;56.98
48244;BME280;34053;51.088;6.572;2023-02-28T00:58:58;102391.63;;;2.34;57.08
48244;BME280;34053;51.088;6.572;2023-02-28T01:01:28;102392.41;;;2.32;57.08
48244;BME280;34053;51.088;6.572;2023-02-28T01:03:59;102389.72;;;2.29;57.15
48244;BME280;34053;51.088;6.572;2023-02-28T01:06:30;102393.41;;;2.35;56.99
48244;BME280;34053;51.088;6.572;2023-02-28T01:09:00;102398.59;;;2.35;57.12
48244;BME280;34053;51.088;6.572;2023-02-28T01:11:31;102400.22;;;2.33;57.28
48244;BME280;34053;51.088;6.572;2023-02-28T01:14:03;102392.41;;;2.32;57.27
48244;BME280;34053;51.088;6.572;2023-02-28T01:16:34;102402.13;;;2.38;57.07
48244;BME280;34053;51.088;6.572;2023-02-28T01:19:04;102396.78;;;2.33;56.79
48244;BME280;34053;51.088;6.572;2023-02-28T01:21:35;102398.59;;;2.35;56.63
48244;BME280;34053;51.088;6.572;2023-02-28T01:24:06;102399.38;;;2.33;57.26
48244;BME280;34053;51.088;6.572;2023-02-28T01:26:37;102402.78;;;2.32;56.74
48244;BME280;34053;51.088;6.572;2023-02-28T01:29:07;102393.13;;;2.02;58.00
48244;BME280;34053;51.088;6.572;2023-02-28T01:31:38;102397.28;;;2.23;57.46
48244;BME280;34053;51.088;6.572;2023-02-28T01:34:09;102392.09;;;2.23;56.97
48244;BME280;34053;51.088;6.572;2023-02-28T01:36:41;102391.44;;;2.28;57.52
48244;BME280;34053;51.088;6.572;2023-02-28T01:39:12;102388.81;;;2.27;57.07
48244;BME280;34053;51.088;6.572;2023-02-28T01:41:43;102389.63;;;2.26;57.28
48244;BME280;34053;51.088;6.572;2023-02-28T01:47:22;102382.84;;;2.29;56.68
48244;BME280;34053;51.088;6.572;2023-02-28T01:49:53;102385.22;;;2.23;56.99
48244;BME280;34053;51.088;6.572;2023-02-28T01:52:24;102387.91;;;2.26;57.17
48244;BME280;34053;51.088;6.572;2023-02-28T01:54:58;102380.09;;;2.25;56.93
48244;BME280;34053;51.088;6.572;2023-02-28T01:57:34;102373.19;;;2.25;57.10
48244;BME280;34053;51.088;6.572;2023-02-28T02:00:14;102372.31;;;2.25;57.14
48244;BME280;34053;51.088;6.572;2023-02-28T02:02:51;102380.06;;;2.23;57.04
48244;BME280;34053;51.088;6.572;2023-02-28T02:05:28;102371.28;;;2.19;57.62
48244;BME280;34053;51.088;6.572;2023-02-28T02:08:04;102374.88;;;2.23;57.32
48244;BME280;34053;51.088;6.572;2023-02-28T02:10:54;102370.69;;;2.27;57.17
48244;BME280;34053;51.088;6.572;2023-02-28T02:16:47;102364.41;;;2.20;57.73
48244;BME280;34053;51.088;6.572;2023-02-28T02:28:46;102363.50;;;2.19;57.25
48244;BME280;34053;51.088;6.572;2023-02-28T02:39:56;102372.03;;;1.91;57.51
48244;BME280;34053;51.088;6.572;2023-02-28T02:42:44;102368.13;;;2.02;57.33
48244;BME280;34053;51.088;6.572;2023-02-28T02:45:24;102365.56;;;2.04;57.65
48244;BME280;34053;51.088;6.572;2023-02-28T02:47:57;102357.56;;;1.96;57.53
48244;BME280;34053;51.088;6.572;2023-02-28T02:50:34;102351.44;;;1.94;57.32
48244;BME280;34053;51.088;6.572;2023-02-28T02:53:08;102347.44;;;2.04;57.57
48244;BME280;34053;51.088;6.572;2023-02-28T02:55:43;102349.50;;;1.88;57.79
48244;BME280;34053;51.088;6.572;2023-02-28T02:58:18;102348.56;;;1.86;57.75
48244;BME280;34053;51.088;6.572;2023-02-28T03:00:54;102346.28;;;1.96;57.60
48244;BME280;34053;51.088;6.572;2023-02-28T03:03:28;102344.44;;;1.92;57.93
48244;BME280;34053;51.088;6.572;2023-02-28T03:06:01;102345.22;;;1.65;58.47
48244;BME280;34053;51.088;6.572;2023-02-28T03:08:37;102349.13;;;1.78;58.25
48244;BME280;34053;51.088;6.572;2023-02-28T03:11:12;102347.41;;;1.78;58.01
48244;BME280;34053;51.088;6.572;2023-02-28T03:14:20;102353.75;;;1.62;58.78
48244;BME280;34053;51.088;6.572;2023-02-28T03:34:04;102346.78;;;1.60;58.07
48244;BME280;34053;51.088;6.572;2023-02-28T03:36:45;102345.34;;;1.68;58.02
48244;BME280;34053;51.088;6.572;2023-02-28T03:39:20;102334.09;;;1.67;57.99
48244;BME280;34053;51.088;6.572;2023-02-28T03:41:58;102337.59;;;1.68;58.09
48244;BME280;34053;51.088;6.572;2023-02-28T03:47:40;102344.06;;;1.56;58.52
48244;BME280;34053;51.088;6.572;2023-02-28T03:50:26;102346.66;;;1.56;58.87
48244;BME280;34053;51.088;6.572;2023-02-28T03:53:02;102351.81;;;1.56;58.98
48244;BME280;34053;51.088;6.572;2023-02-28T03:55:40;102359.63;;;1.58;58.57
48244;BME280;34053;51.088;6.572;2023-02-28T04:01:03;102349.19;;;1.55;58.63
48244;BME280;34053;51.088;6.572;2023-02-28T04:03:38;102353.38;;;1.51;57.85
48244;BME280;34053;51.088;6.572;2023-02-28T04:06:16;102355.44;;;1.37;58.45
48244;BME280;34053;51.088;6.572;2023-02-28T04:08:48;102358.16;;;1.40;58.20
48244;BME280;34053;51.088;6.572;2023-02-28T04:14:02;102357.38;;;1.43;58.52
48244;BME280;34053;51.088;6.572;2023-02-28T04:16:35;102351.97;;;1.37;58.54
48244;BME280;34053;51.088;6.572;2023-02-28T04:19:07;102361.50;;;1.38;58.35
48244;BME280;34053;51.088;6.572;2023-02-28T04:21:52;102361.41;;;1.35;59.18
48244;BME280;34053;51.088;6.572;2023-02-28T04:24:25;102369.16;;;1.35;59.17
48244;BME280;34053;51.088;6.572;2023-02-28T04:26:57;102369.16;;;1.35;58.98
48244;BME280;34053;51.088;6.572;2023-02-28T04:29:30;102368.38;;;1.37;58.45
48244;BME280;34053;51.088;6.572;2023-02-28T04:32:02;102374.31;;;1.35;58.76
48244;BME280;34053;51.088;6.572;2023-02-28T04:34:37;102376.00;;;1.34;58.81
48244;BME280;34053;51.088;6.572;2023-02-28T04:37:07;102374.41;;;1.38;58.31
48244;BME280;34053;51.088;6.572;2023-02-28T04:39:38;102375.16;;;1.34;58.77
48244;BME280;34053;51.088;6.572;2023-02-28T04:42:10;102374.25;;;1.33;58.74
48244;BME280;34053;51.088;6.572;2023-02-28T04:44:40;102374.16;;;1.30;58.71
48244;BME280;34053;51.088;6.572;2023-02-28T04:47:11;102380.09;;;1.28;58.73
48244;BME280;34053;51.088;6.572;2023-02-28T04:49:42;102378.34;;;1.27;58.72
48244;BME280;34053;51.088;6.572;2023-02-28T04:52:13;102379.19;;;1.27;58.89
48244;BME280;34053;51.088;6.572;2023-02-28T04:54:43;102382.69;;;1.28;59.09
48244;BME280;34053;51.088;6.572;2023-02-28T04:57:14;102381.72;;;1.25;59.17
48244;BME280;34053;51.088;6.572;2023-02-28T04:59:44;102385.97;;;1.23;58.80
48244;BME280;34053;51.088;6.572;2023-02-28T05:02:14;102380.09;;;1.28;59.05
48244;BME280;34053;51.088;6.572;2023-02-28T05:04:45;102382.59;;;1.26;58.91
48244;BME280;34053;51.088;6.572;2023-02-28T05:07:16;102390.44;;;1.28;58.93
48244;BME280;34053;51.088;6.572;2023-02-28T05:09:46;102389.31;;;1.21;59.30
48244;BME280;34053;51.088;6.572;2023-02-28T05:12:17;102387.59;;;1.21;59.19
48244;BME280;34053;51.088;6.572;2023-02-28T05:14:47;102388.41;;;1.20;58.86
48244;BME280;34053;51.088;6.572;2023-02-28T05:17:17;102391.78;;;1.18;58.90
48244;BME280;34053;51.088;6.572;2023-02-28T05:19:48;102388.31;;;1.17;59.48
48244;BME280;34053;51.088;6.572;2023-02-28T05:22:18;102386.56;;;1.16;59.04
48244;BME280;34053;51.088;6.572;2023-02-28T05:24:49;102388.59;;;1.02;58.99
48244;BME280;34053;51.088;6.572;2023-02-28T05:27:20;102383.66;;;1.08;58.87
48244;BME280;34053;51.088;6.572;2023-02-28T05:29:50;102382.78;;;1.08;58.87
48244;BME280;34053;51.088;6.572;2023-02-28T05:32:21;102382.78;;;1.08;59.11
48244;BME280;34053;51.088;6.572;2023-02-28T05:34:51;102382.00;;;1.10;58.82
48244;BME280;34053;51.088;6.572;2023-02-28T05:37:27;102384.59;;;1.10;58.63
48244;BME280;34053;51.088;6.572;2023-02-28T05:40:01;102381.91;;;1.07;58.73
48244;BME280;34053;51.088;6.572;2023-02-28T05:42:32;102379.38;;;1.09;59.43
48244;BME280;34053;51.088;6.572;2023-02-28T05:45:04;102390.50;;;1.06;59.44
48244;BME280;34053;51.088;6.572;2023-02-28T05:47:35;102388.72;;;1.05;59.13
48244;BME280;34053;51.088;6.572;2023-02-28T05:50:06;102388.09;;;1.11;59.00
48244;BME280;34053;51.088;6.572;2023-02-28T05:52:37;102385.19;;;1.03;59.02
48244;BME280;34053;51.088;6.572;2023-02-28T05:55:08;102393.00;;;1.05;58.90
48244;BME280;34053;51.088;6.572;2023-02-28T05:57:38;102387.91;;;1.06;59.19
48244;BME280;34053;51.088;6.572;2023-02-28T06:00:10;102398.16;;;1.05;58.76
48244;BME280;34053;51.088;6.572;2023-02-28T06:02:41;102396.06;;;0.94;59.05
48244;BME280;34053;51.088;6.572;2023-02-28T06:05:19;102401.47;;;1.01;59.16
48244;BME280;34053;51.088;6.572;2023-02-28T06:07:50;102402.34;;;1.01;59.22
48244;BME280;34053;51.088;6.572;2023-02-28T06:10:20;102399.66;;;0.98;58.53
48244;BME280;34053;51.088;6.572;2023-02-28T06:12:51;102404.25;;;0.84;59.80
48244;BME280;34053;51.088;6.572;2023-02-28T06:15:21;102398.56;;;0.93;58.91
48244;BME280;34053;51.088;6.572;2023-02-28T06:17:52;102403.69;;;0.91;58.95
48244;BME280;34053;51.088;6.572;2023-02-28T06:20:23;102408.91;;;0.93;58.63
48244;BME280;34053;51.088;6.572;2023-02-28T06:22:57;102411.19;;;0.85;59.16
48244;BME280;34053;51.088;6.572;2023-02-28T06:25:31;102413.41;;;0.76;58.77
48244;BME280;34053;51.088;6.572;2023-02-28T06:28:07;102419.19;;;0.70;58.93
48244;BME280;34053;51.088;6.572;2023-02-28T06:30:38;102416.63;;;0.70;58.70
48244;BME280;34053;51.088;6.572;2023-02-28T06:33:09;102424.31;;;0.69;58.73
48244;BME280;34053;51.088;6.572;2023-02-28T06:35:42;102416.22;;;0.40;60.54
48244;BME280;34053;51.088;6.572;2023-02-28T06:38:13;102428.56;;;0.47;59.76
48244;BME280;34053;51.088;6.572;2023-02-28T06:40:44;102424.34;;;0.49;59.14
48244;BME280;34053;51.088;6.572;2023-02-28T06:43:15;102430.09;;;0.42;60.01
48244;BME280;34053;51.088;6.572;2023-02-28T06:45:45;102429.03;;;0.37;60.53
48244;BME280;34053;51.088;6.572;2023-02-28T06:48:16;102439.34;;;0.37;60.11
48244;BME280;34053;51.088;6.572;2023-02-28T06:50:48;102439.22;;;0.34;59.51
48244;BME280;34053;51.088;6.572;2023-02-28T06:53:18;102442.56;;;0.31;60.43
48244;BME280;34053;51.088;6.572;2023-02-28T06:55:48;102442.81;;;0.37;59.84
48244;BME280;34053;51.088;6.572;2023-02-28T06:58:19;102443.66;;;0.38;60.21
48244;BME280;34053;51.088;6.572;2023-02-28T07:00:52;102447.41;;;0.44;59.85
48244;BME280;34053;51.088;6.572;2023-02-28T07:03:23;102450.91;;;0.45;59.69
48244;BME280;34053;51.088;6.572;2023-02-28T07:05:53;102446.66;;;0.47;59.73
48244;BME280;34053;51.088;6.572;2023-02-28T07:08:26;102444.22;;;0.50;59.45
48244;BME280;34053;51.088;6.572;2023-02-28T07:10:57;102453.72;;;0.51;59.35
48244;BME280;34053;51.088;6.572;2023-02-28T07:13:28;102445.91;;;0.50;60.02
48244;BME280;34053;51.088;6.572;2023-02-28T07:16:02;102445.59;;;0.42;59.72
48244;BME280;34053;51.088;6.572;2023-02-28T07:18:32;102448.19;;;0.22;60.04
48244;BME280;34053;51.088;6.572;2023-02-28T07:21:04;102444.38;;;0.14;60.13
48244;BME280;34053;51.088;6.572;2023-02-28T07:23:36;102454.31;;;0.05;60.54
48244;BME280;34053;51.088;6.572;2023-02-28T07:26:14;102444.78;;;0.23;60.75
48244;BME280;34053;51.088;6.572;2023-02-28T07:28:46;102452.06;;;0.12;59.93
48244;BME280;34053;51.088;6.572;2023-02-28T07:31:17;102459.47;;;0.24;60.38
48244;BME280;34053;51.088;6.572;2023-02-28T07:33:51;102446.97;;;0.34;60.12
48244;BME280;34053;51.088;6.572;2023-02-28T07:36:24;102454.97;;;0.40;59.92
48244;BME280;34053;51.088;6.572;2023-02-28T07:38:54;102446.16;;;0.35;59.67
48244;BME280;34053;51.088;6.572;2023-02-28T07:41:25;102449.22;;;0.47;59.74
48244;BME280;34053;51.088;6.572;2023-02-28T07:43:57;102457.44;;;0.37;59.87
48244;BME280;34053;51.088;6.572;2023-02-28T07:46:29;102449.38;;;0.50;59.22
48244;BME280;34053;51.088;6.572;2023-02-28T07:49:05;102449.19;;;0.26;59.04
48244;BME280;34053;51.088;6.572;2023-02-28T07:51:36;102463.50;;;-0.02;58.96
48244;BME280;34053;51.088;6.572;2023-02-28T07:54:11;102454.25;;;0.23;59.12
48244;BME280;34053;51.088;6.572;2023-02-28T07:56:42;102456.56;;;0.17;58.03
48244;BME280;34053;51.088;6.572;2023-02-28T07:59:12;102454.09;;;0.20;57.32
48244;BME280;34053;51.088;6.572;2023-02-28T08:01:43;102450.56;;;0.18;57.82
48244;BME280;34053;51.088;6.572;2023-02-28T08:04:17;102461.63;;;0.15;57.28
48244;BME280;34053;51.088;6.572;2023-02-28T08:06:48;102454.59;;;0.11;57.06
48244;BME280;34053;51.088;6.572;2023-02-28T08:09:19;102451.06;;;0.09;57.06
48244;BME280;34053;51.088;6.572;2023-02-28T08:11:49;102459.22;;;0.18;55.73
48244;BME280;34053;51.088;6.572;2023-02-28T08:14:22;102463.41;;;0.16;56.46
48244;BME280;34053;51.088;6.572;2023-02-28T08:16:53;102468.72;;;0.19;55.18
48244;BME280;34053;51.088;6.572;2023-02-28T08:19:26;102458.50;;;0.22;55.42
48244;BME280;34053;51.088;6.572;2023-02-28T08:21:57;102465.53;;;0.25;54.18
48244;BME280;34053;51.088;6.572;2023-02-28T08:24:28;102464.88;;;0.30;53.66
48244;BME280;34053;51.088;6.572;2023-02-28T08:26:58;102462.59;;;0.37;53.62
48244;BME280;34053;51.088;6.572;2023-02-28T08:29:29;102473.84;;;0.39;53.79
48244;BME280;34053;51.088;6.572;2023-02-28T08:32:00;102466.09;;;0.39;53.76
48244;BME280;34053;51.088;6.572;2023-02-28T08:34:31;102470.03;;;0.50;52.30
48244;BME280;34053;51.088;6.572;2023-02-28T08:37:01;102474.44;;;0.53;52.28
48244;BME280;34053;51.088;6.572;2023-02-28T08:39:35;102473.69;;;0.55;52.21
48244;BME280;34053;51.088;6.572;2023-02-28T08:42:06;102473.88;;;0.60;52.31
48244;BME280;34053;51.088;6.572;2023-02-28T08:44:36;102475.72;;;0.62;52.60
48244;BME280;34053;51.088;6.572;2023-02-28T08:47:07;102470.13;;;0.73;52.58
48244;BME280;34053;51.088;6.572;2023-02-28T08:49:37;102470.88;;;0.70;51.90
48244;BME280;34053;51.088;6.572;2023-02-28T08:52:08;102471.88;;;0.74;50.70
48244;BME280;34053;51.088;6.572;2023-02-28T08:54:38;102465.19;;;0.79;51.61
48244;BME280;34053;51.088;6.572;2023-02-28T08:57:09;102469.69;;;0.83;49.28
48244;BME280;34053;51.088;6.572;2023-02-28T08:59:40;102465.53;;;0.87;49.44
48244;BME280;34053;51.088;6.572;2023-02-28T09:02:14;102470.88;;;0.91;49.10
48244;BME280;34053;51.088;6.572;2023-02-28T09:04:45;102465.91;;;0.96;49.36
48244;BME280;34053;51.088;6.572;2023-02-28T09:07:15;102475.72;;;1.05;50.15
48244;BME280;34053;51.088;6.572;2023-02-28T09:09:46;102474.84;;;1.04;48.87
48244;BME280;34053;51.088;6.572;2023-02-28T09:12:27;102469.16;;;1.13;49.40
48244;BME280;34053;51.088;6.572;2023-02-28T09:14:57;102465.13;;;1.20;48.32
48244;BME280;34053;51.088;6.572;2023-02-28T09:17:28;102466.16;;;1.25;48.03
48244;BME280;34053;51.088;6.572;2023-02-28T09:19:58;102466.50;;;1.33;47.77
48244;BME280;34053;51.088;6.572;2023-02-28T09:22:31;102457.97;;;1.35;47.43
48244;BME280;34053;51.088;6.572;2023-02-28T09:25:02;102446.50;;;1.51;48.48
48244;BME280;34053;51.088;6.572;2023-02-28T09:27:33;102453.91;;;1.42;45.27
48244;BME280;34053;51.088;6.572;2023-02-28T09:30:04;102448.75;;;1.42;45.21
48244;BME280;34053;51.088;6.572;2023-02-28T09:32:54;102450.59;;;1.46;46.17
48244;BME280;34053;51.088;6.572;2023-02-28T09:36:13;102455.97;;;1.51;44.76
48244;BME280;34053;51.088;6.572;2023-02-28T09:43:12;102443.78;;;1.71;46.18
48244;BME280;34053;51.088;6.572;2023-02-28T09:45:55;102456.88;;;1.76;45.77
48244;BME280;34053;51.088;6.572;2023-02-28T09:48:36;102456.97;;;1.77;46.33
48244;BME280;34053;51.088;6.572;2023-02-28T09:51:50;102451.00;;;1.80;45.24
48244;BME280;34053;51.088;6.572;2023-02-28T09:54:21;102456.25;;;1.81;45.06
48244;BME280;34053;51.088;6.572;2023-02-28T09:57:00;102450.41;;;1.87;44.31
48244;BME280;34053;51.088;6.572;2023-02-28T09:59:50;102454.00;;;1.91;43.98
48244;BME280;34053;51.088;6.572;2023-02-28T10:02:49;102450.75;;;1.96;43.42
48244;BME280;34053;51.088;6.572;2023-02-28T10:05:25;102463.31;;;2.10;44.62
48244;BME280;34053;51.088;6.572;2023-02-28T10:08:03;102450.53;;;2.14;44.84
48244;BME280;34053;51.088;6.572;2023-02-28T10:10:42;102453.09;;;2.14;43.67
48244;BME280;34053;51.088;6.572;2023-02-28T10:13:26;102453.47;;;2.25;44.76
48244;BME280;34053;51.088;6.572;2023-02-28T10:16:06;102453.66;;;2.30;44.15
48244;BME280;34053;51.088;6.572;2023-02-28T10:18:43;102454.16;;;2.19;43.43
48244;BME280;34053;51.088;6.572;2023-02-28T10:21:34;102454.47;;;2.29;43.15
48244;BME280;34053;51.088;6.572;2023-02-28T10:24:28;102451.72;;;2.24;43.65
48244;BME280;34053;51.088;6.572;2023-02-28T10:27:09;102442.47;;;2.31;44.18
48244;BME280;34053;51.088;6.572;2023-02-28T10:29:44;102445.22;;;2.35;44.43
48244;BME280;34053;51.088;6.572;2023-02-28T10:32:18;102430.84;;;2.45;44.40
48244;BME280;34053;51.088;6.572;2023-02-28T10:34:55;102446.56;;;2.50;45.23
48244;BME280;34053;51.088;6.572;2023-02-28T10:37:28;102434.81;;;2.60;45.48
48244;BME280;34053;51.088;6.572;2023-02-28T10:39:58;102443.50;;;2.62;44.41
48244;BME280;34053;51.088;6.572;2023-02-28T10:42:29;102441.22;;;2.71;44.80
48244;BME280;34053;51.088;6.572;2023-02-28T10:45:12;102439.25;;;2.64;43.58
48244;BME280;34053;51.088;6.572;2023-02-28T10:47:59;102437.75;;;2.71;43.44
48244;BME280;34053;51.088;6.572;2023-02-28T11:01:39;102432.19;;;2.86;44.71
48244;BME280;34053;51.088;6.572;2023-02-28T11:04:31;102427.78;;;2.83;44.29
48244;BME280;34053;51.088;6.572;2023-02-28T11:07:05;102432.09;;;2.82;42.61
48244;BME280;34053;51.088;6.572;2023-02-28T11:09:39;102418.50;;;2.90;43.19
48244;BME280;34053;51.088;6.572;2023-02-28T11:14:58;102416.91;;;2.95;44.31
48244;BME280;34053;51.088;6.572;2023-02-28T11:17:31;102411.94;;;3.01;44.08
48244;BME280;34053;51.088;6.572;2023-02-28T11:20:06;102414.88;;;3.12;44.77
48244;BME280;34053;51.088;6.572;2023-02-28T11:22:39;102407.09;;;3.12;43.88
48244;BME280;34053;51.088;6.572;2023-02-28T11:25:22;102411.22;;;3.07;43.45
48244;BME280;34053;51.088;6.572;2023-02-28T11:27:57;102409.34;;;3.01;43.45
48244;BME280;34053;51.088;6.572;2023-02-28T11:30:50;102412.56;;;3.21;44.94
48244;BME280;34053;51.088;6.572;2023-02-28T11:33:53;102409.06;;;3.21;43.56
48244;BME280;34053;51.088;6.572;2023-02-28T11:36:27;102395.38;;;3.25;44.22
48244;BME280;34053;51.088;6.572;2023-02-28T11:39:03;102406.22;;;3.40;43.00
48244;BME280;34053;51.088;6.572;2023-02-28T11:48:21;102407.97;;;3.41;43.72
48244;BME280;34053;51.088;6.572;2023-02-28T11:53:23;102408.31;;;3.54;43.64
48244;BME280;34053;51.088;6.572;2023-02-28T11:58:39;102409.97;;;3.52;43.97
48244;BME280;34053;51.088;6.572;2023-02-28T12:06:46;102413.88;;;3.66;42.39
48244;BME280;34053;51.088;6.572;2023-02-28T12:12:25;102401.47;;;3.86;41.93
48244;BME280;34053;51.088;6.572;2023-02-28T12:21:05;102389.56;;;3.94;42.45
48244;BME280;34053;51.088;6.572;2023-02-28T12:23:51;102398.47;;;4.04;43.56
48244;BME280;34053;51.088;6.572;2023-02-28T12:26:37;102392.41;;;4.04;41.75
48244;BME280;34053;51.088;6.572;2023-02-28T12:29:14;102385.81;;;4.17;42.83
48244;BME280;34053;51.088;6.572;2023-02-28T12:31:53;102390.78;;;4.43;42.14
48244;BME280;34053;51.088;6.572;2023-02-28T12:34:31;102385.38;;;4.33;42.92
48244;BME280;34053;51.088;6.572;2023-02-28T12:37:20;102384.47;;;4.31;41.25
48244;BME280;34053;51.088;6.572;2023-02-28T12:40:00;102373.53;;;4.45;42.01
48244;BME280;34053;51.088;6.572;2023-02-28T12:42:42;102384.28;;;4.60;42.11
48244;BME280;34053;51.088;6.572;2023-02-28T12:45:48;102370.75;;;4.73;41.17
48244;BME280;34053;51.088;6.572;2023-02-28T12:48:29;102359.47;;;4.36;40.38
48244;BME280;34053;51.088;6.572;2023-02-28T12:51:01;102349.75;;;4.64;42.71
48244;BME280;34053;51.088;6.572;2023-02-28T12:59:17;102336.00;;;5.10;42.35
48244;BME280;34053;51.088;6.572;2023-02-28T13:02:19;102329.25;;;5.18;42.69
48244;BME280;34053;51.088;6.572;2023-02-28T13:05:10;102328.09;;;5.05;41.43
48244;BME280;34053;51.088;6.572;2023-02-28T13:10:47;102332.56;;;4.71;39.76
48244;BME280;34053;51.088;6.572;2023-02-28T13:13:23;102328.06;;;5.03;40.58
48244;BME280;34053;51.088;6.572;2023-02-28T13:16:09;102317.31;;;4.86;40.43
48244;BME280;34053;51.088;6.572;2023-02-28T13:18:43;102307.19;;;5.00;41.33
48244;BME280;34053;51.088;6.572;2023-02-28T13:21:30;102315.25;;;5.13;41.69
48244;BME280;34053;51.088;6.572;2023-02-28T13:24:03;102307.31;;;5.48;41.33
48244;BME280;34053;51.088;6.572;2023-02-28T13:34:40;102308.63;;;5.73;41.12
48244;BME280;34053;51.088;6.572;2023-02-28T13:39:50;102304.53;;;5.39;40.92
48244;BME280;34053;51.088;6.572;2023-02-28T13:47:42;102308.81;;;5.36;40.28
48244;BME280;34053;51.088;6.572;2023-02-28T13:55:43;102301.81;;;5.78;40.75
48244;BME280;34053;51.088;6.572;2023-02-28T14:06:27;102277.38;;;5.73;42.38
48244;BME280;34053;51.088;6.572;2023-02-28T14:09:15;102274.94;;;5.81;39.79
48244;BME280;34053;51.088;6.572;2023-02-28T14:11:49;102268.00;;;5.83;41.52
48244;BME280;34053;51.088;6.572;2023-02-28T14:17:14;102268.66;;;6.20;40.68
48244;BME280;34053;51.088;6.572;2023-02-28T14:19:47;102265.81;;;6.05;40.16
48244;BME280;34053;51.088;6.572;2023-02-28T14:25:11;102261.59;;;6.11;37.16
48244;BME280;34053;51.088;6.572;2023-02-28T14:28:23;102258.72;;;5.97;39.75
48244;BME280;34053;51.088;6.572;2023-02-28T14:31:07;102264.28;;;5.68;38.39
48244;BME280;34053;51.088;6.572;2023-02-28T14:36:33;102266.88;;;5.68;38.28
48244;BME280;34053;51.088;6.572;2023-02-28T14:39:22;102260.06;;;5.75;39.22
48244;BME280;34053;51.088;6.572;2023-02-28T14:41:55;102252.53;;;5.92;40.31
48244;BME280;34053;51.088;6.572;2023-02-28T14:44:27;102254.84;;;5.75;38.92
48244;BME280;34053;51.088;6.572;2023-02-28T14:47:00;102255.69;;;5.73;39.30
48244;BME280;34053;51.088;6.572;2023-02-28T14:49:45;102256.53;;;5.72;40.58
48244;BME280;34053;51.088;6.572;2023-02-28T14:52:31;102258.53;;;5.87;39.54
48244;BME280;34053;51.088;6.572;2023-02-28T14:55:13;102258.25;;;5.71;40.25
48244;BME280;34053;51.088;6.572;2023-02-28T14:57:54;102252.34;;;5.80;40.64
48244;BME280;34053;51.088;6.572;2023-02-28T15:00:28;102254.97;;;5.83;40.23
48244;BME280;34053;51.088;6.572;2023-02-28T15:03:01;102248.63;;;5.65;40.63
48244;BME280;34053;51.088;6.572;2023-02-28T15:05:33;102245.34;;;5.77;40.26
48244;BME280;34053;51.088;6.572;2023-02-28T15:08:14;102241.94;;;5.81;40.53
48244;BME280;34053;51.088;6.572;2023-02-28T15:11:06;102239.50;;;5.92;41.30
48244;BME280;34053;51.088;6.572;2023-02-28T15:13:54;102243.69;;;5.84;40.13
48244;BME280;34053;51.088;6.572;2023-02-28T15:16:32;102248.16;;;5.90;41.66
48244;BME280;34053;51.088;6.572;2023-02-28T15:19:08;102241.06;;;5.81;41.46
48244;BME280;34053;51.088;6.572;2023-02-28T15:21:49;102244.34;;;5.71;41.11
48244;BME280;34053;51.088;6.572;2023-02-28T15:27:09;102232.28;;;5.76;40.83
48244;BME280;34053;51.088;6.572;2023-02-28T15:29:46;102237.63;;;5.82;41.54
48244;BME280;34053;51.088;6.572;2023-02-28T15:32:33;102231.34;;;5.71;41.41
48244;BME280;34053;51.088;6.572;2023-02-28T15:37:57;102237.88;;;5.48;40.92
48244;BME280;34053;51.088;6.572;2023-02-28T15:40:37;102238.81;;;5.52;41.02
48244;BME280;34053;51.088;6.572;2023-02-28T15:43:23;102250.13;;;5.54;40.67
48244;BME280;34053;51.088;6.572;2023-02-28T15:45:58;102240.56;;;5.53;41.16
48244;BME280;34053;51.088;6.572;2023-02-28T15:48:35;102234.03;;;5.28;41.44
48244;BME280;34053;51.088;6.572;2023-02-28T15:51:16;102237.53;;;5.30;42.23
48244;BME280;34053;51.088;6.572;2023-02-28T15:53:49;102235.81;;;5.30;41.47
48244;BME280;34053;51.088;6.572;2023-02-28T15:56:27;102241.31;;;5.46;42.92
48244;BME280;34053;51.088;6.572;2023-02-28T15:59:02;102244.09;;;5.55;43.01
48244;BME280;34053;51.088;6.572;2023-02-28T16:01:37;102242.97;;;5.42;42.53
48244;BME280;34053;51.088;6.572;2023-02-28T16:04:19;102243.94;;;5.47;42.62
48244;BME280;34053;51.088;6.572;2023-02-28T16:09:30;102244.69;;;5.42;42.37
48244;BME280;34053;51.088;6.572;2023-02-28T16:12:02;102237.69;;;5.39;42.47